createdAt,value
2022-10-26T00:06:36.386Z,4.93
2022-10-26T00:11:35.054Z,4.55
2022-10-26T00:16:33.901Z,3.65
2022-10-26T00:21:32.550Z,4.00
2022-10-26T00:26:31.380Z,3.33
2022-10-26T00:31:30.302Z,3.83
2022-10-26T00:36:29.140Z,3.88
2022-10-26T00:41:32.029Z,3.95
2022-10-26T00:46:34.581Z,3.88
2022-10-26T00:51:52.264Z,4.18
2022-10-26T00:56:53.607Z,3.75
2022-10-26T01:01:53.185Z,3.70
2022-10-26T01:06:53.059Z,3.53
2022-10-26T01:11:51.899Z,4.03
2022-10-26T01:17:07.524Z,3.90
2022-10-26T01:22:18.810Z,3.88
2022-10-26T01:27:32.950Z,3.78
2022-10-26T01:32:43.276Z,3.58
2022-10-26T01:37:47.984Z,3.80
2022-10-26T01:42:52.726Z,4.13
2022-10-26T01:47:54.397Z,3.75
2022-10-26T01:52:54.576Z,4.50
2022-10-26T01:58:00.509Z,3.42
2022-10-26T02:03:16.122Z,4.40
2022-10-26T02:08:43.623Z,3.80
2022-10-26T02:14:00.938Z,4.18
2022-10-26T02:19:29.277Z,3.47
2022-10-26T02:24:29.437Z,3.58
2022-10-26T02:29:55.695Z,4.35
2022-10-26T02:34:57.813Z,4.13
2022-10-26T02:39:58.022Z,4.00
2022-10-26T02:45:02.879Z,5.60
2022-10-26T02:50:02.302Z,4.47
2022-10-26T02:55:11.908Z,5.10
2022-10-26T03:00:14.617Z,3.90
2022-10-26T03:05:19.694Z,4.22
2022-10-26T03:10:18.721Z,3.92
2022-10-26T03:15:17.990Z,4.30
2022-10-26T03:20:17.093Z,4.65
2022-10-26T03:25:15.817Z,3.67
2022-10-26T03:30:14.606Z,3.65
2022-10-26T03:35:13.388Z,3.75
2022-10-26T03:40:12.511Z,3.72
2022-10-26T03:45:11.799Z,3.42
2022-10-26T03:50:12.294Z,3.22
2022-10-26T03:55:11.107Z,3.33
2022-10-26T04:00:15.478Z,3.45
2022-10-26T04:05:16.645Z,4.20
2022-10-26T04:10:15.427Z,4.32
2022-10-26T04:15:14.123Z,4.20
2022-10-26T04:20:13.238Z,3.75
2022-10-26T04:25:13.583Z,5.95
2022-10-26T04:30:13.139Z,3.28
2022-10-26T04:35:14.630Z,2.60
2022-10-26T04:40:14.544Z,3.15
2022-10-26T04:45:16.978Z,3.63
2022-10-26T04:50:15.804Z,3.45
2022-10-26T04:55:14.603Z,4.68
2022-10-26T05:00:13.684Z,3.92
2022-10-26T05:05:14.947Z,3.55
2022-10-26T05:10:14.652Z,4.63
2022-10-26T05:15:15.436Z,4.13
2022-10-26T05:20:14.478Z,4.32
2022-10-26T05:25:13.702Z,4.70
2022-10-26T05:30:12.866Z,4.35
2022-10-26T05:35:11.619Z,3.78
2022-10-26T05:40:10.923Z,4.50
2022-10-26T05:45:09.877Z,4.25
2022-10-26T05:50:09.996Z,4.40
2022-10-26T05:55:10.437Z,4.57
2022-10-26T06:00:15.884Z,5.07
2022-10-26T06:05:22.783Z,4.40
2022-10-26T06:10:21.647Z,5.10
2022-10-26T06:15:21.956Z,5.10
2022-10-26T06:20:50.599Z,5.60
2022-10-26T06:25:56.045Z,6.20
2022-10-26T06:30:55.266Z,6.63
2022-10-26T06:36:17.960Z,5.88
2022-10-26T06:41:19.368Z,6.80
2022-10-26T06:46:33.133Z,5.78
2022-10-26T06:51:40.943Z,5.63
2022-10-26T06:56:40.111Z,6.28
2022-10-26T07:01:39.193Z,5.43
2022-10-26T07:06:39.399Z,6.05
2022-10-26T07:11:38.347Z,6.38
2022-10-26T07:16:37.482Z,6.35
2022-10-26T07:21:36.110Z,6.53
2022-10-26T07:26:34.818Z,6.55
2022-10-26T07:31:33.471Z,5.97
2022-10-26T07:36:32.205Z,7.05
2022-10-26T07:41:30.864Z,7.93
2022-10-26T07:46:29.589Z,7.60
2022-10-26T07:51:28.475Z,6.45
2022-10-26T07:56:27.220Z,6.20
2022-10-26T08:01:26.154Z,7.05
2022-10-26T08:06:25.085Z,6.63
2022-10-26T08:11:25.002Z,7.53
2022-10-26T08:16:24.394Z,6.97
2022-10-26T08:21:36.080Z,6.78
2022-10-26T08:26:38.466Z,7.07
2022-10-26T08:31:37.171Z,6.32
2022-10-26T08:36:36.090Z,7.45
2022-10-26T08:41:46.181Z,6.75
2022-10-26T08:46:49.406Z,7.18
2022-10-26T08:51:52.115Z,6.68
2022-10-26T08:56:58.499Z,7.22
2022-10-26T09:01:57.605Z,7.30
2022-10-26T09:07:40.425Z,6.28
2022-10-26T09:12:39.310Z,5.97
2022-10-26T09:17:44.176Z,6.95
2022-10-26T09:22:42.826Z,6.38
2022-10-26T09:27:45.040Z,6.15
2022-10-26T09:32:49.760Z,6.93
2022-10-26T09:38:06.312Z,7.05
2022-10-26T09:43:13.767Z,5.93
2022-10-26T09:48:23.088Z,5.63
2022-10-26T09:53:21.880Z,5.97
2022-10-26T09:58:27.482Z,6.07
2022-10-26T10:03:29.696Z,5.70
2022-10-26T10:08:28.684Z,5.68
2022-10-26T10:13:33.233Z,6.22
2022-10-26T10:18:33.265Z,5.18
2022-10-26T10:23:34.649Z,5.00
2022-10-26T10:28:34.795Z,5.20
2022-10-26T10:33:45.483Z,4.45
2022-10-26T10:38:46.559Z,4.43
2022-10-26T10:43:49.115Z,4.40
2022-10-26T10:48:54.256Z,4.38
2022-10-26T10:53:56.953Z,3.90
2022-10-26T10:59:10.906Z,3.50
2022-10-26T11:04:33.322Z,4.50
2022-10-26T11:09:37.702Z,3.67
2022-10-26T11:14:44.245Z,2.97
2022-10-26T11:20:00.330Z,2.50
2022-10-26T11:25:10.796Z,2.60
2022-10-26T11:30:18.909Z,3.03
2022-10-26T11:35:24.706Z,2.20
2022-10-26T11:40:45.420Z,1.30
2022-10-26T11:46:03.055Z,1.67
2022-10-26T11:51:02.993Z,1.92
2022-10-26T11:56:05.027Z,2.10
2022-10-26T12:01:14.185Z,1.27
2022-10-26T12:06:20.642Z,0.80
2022-10-26T12:11:41.277Z,0.65
2022-10-26T12:16:40.007Z,0.95
2022-10-26T12:21:38.941Z,0.85
2022-10-26T12:26:39.004Z,0.55
2022-10-26T12:31:37.693Z,0.50
2022-10-26T12:37:01.603Z,0.75
2022-10-26T12:42:05.990Z,0.80
2022-10-26T12:47:05.684Z,0.88
2022-10-26T12:52:04.375Z,0.75
2022-10-26T12:57:30.857Z,0.88
2022-10-26T13:03:04.634Z,0.80
2022-10-26T13:08:07.565Z,0.95
2022-10-26T13:13:08.424Z,0.75
2022-10-26T13:18:10.664Z,0.95
2022-10-26T13:23:30.908Z,0.88
2022-10-26T13:28:38.838Z,1.08
2022-10-26T13:33:42.024Z,2.10
2022-10-26T13:38:41.529Z,1.98
2022-10-26T13:43:40.852Z,2.25
2022-10-26T13:48:41.481Z,2.17
2022-10-26T13:53:57.175Z,2.25
2022-10-26T13:59:09.752Z,2.17
2022-10-26T14:04:34.690Z,2.65
2022-10-26T14:09:33.669Z,2.55
2022-10-26T14:14:36.348Z,2.70
2022-10-26T14:24:48.260Z,2.78
2022-10-26T14:30:03.743Z,2.80
2022-10-26T14:35:11.480Z,3.30
2022-10-26T14:40:18.865Z,2.72
2022-10-26T14:45:50.198Z,3.08
2022-10-26T14:50:59.683Z,3.00
2022-10-26T14:55:58.591Z,2.95
2022-10-26T15:01:34.586Z,3.10
2022-10-26T15:06:40.541Z,2.88
2022-10-26T15:11:42.945Z,2.88
2022-10-26T15:16:50.196Z,3.55
2022-10-26T15:21:50.516Z,3.22
2022-10-26T15:26:49.407Z,3.40
2022-10-26T15:32:33.067Z,3.90
2022-10-26T15:37:31.904Z,3.83
2022-10-26T15:42:30.766Z,4.85
2022-10-26T15:47:34.022Z,4.13
2022-10-26T15:52:32.823Z,5.43
2022-10-26T15:57:34.089Z,4.57
2022-10-26T16:02:34.773Z,4.80
2022-10-26T16:07:33.514Z,5.50
2022-10-26T16:12:32.278Z,4.65
2022-10-26T16:17:30.957Z,5.90
2022-10-26T16:22:30.998Z,6.60
2022-10-26T16:27:31.495Z,7.00
2022-10-26T16:32:30.182Z,7.13
2022-10-26T16:37:30.333Z,6.38
2022-10-26T16:42:31.840Z,6.75
2022-10-26T16:47:35.699Z,6.93
2022-10-26T16:52:35.805Z,6.68
2022-10-26T16:57:36.102Z,5.90
2022-10-26T17:02:35.109Z,6.60
2022-10-26T17:07:34.119Z,8.13
2022-10-26T17:12:32.865Z,3.13
2022-10-26T17:17:31.698Z,5.22
2022-10-26T17:22:30.782Z,7.70
2022-10-26T17:27:29.772Z,5.93
2022-10-26T17:32:28.486Z,8.18
2022-10-26T17:37:27.186Z,7.18
2022-10-26T17:42:25.881Z,7.53
2022-10-26T17:47:24.667Z,7.43
2022-10-26T17:52:25.027Z,7.38
2022-10-26T17:57:24.267Z,8.00
2022-10-26T18:02:23.161Z,7.30
2022-10-26T18:07:21.894Z,8.13
2022-10-26T18:12:20.562Z,7.50
2022-10-26T18:17:19.313Z,8.38
2022-10-26T18:22:18.013Z,7.70
2022-10-26T18:27:17.219Z,8.73
2022-10-26T18:32:15.847Z,8.35
2022-10-26T18:37:14.591Z,8.60
2022-10-26T18:42:13.210Z,8.80
2022-10-26T18:47:12.059Z,10.35
2022-10-26T18:52:10.791Z,9.27
2022-10-26T18:57:09.584Z,8.38
2022-10-26T19:02:14.232Z,9.63
2022-10-26T19:07:12.907Z,8.82
2022-10-26T19:12:11.570Z,9.57
2022-10-26T19:17:10.480Z,8.95
2022-10-26T19:22:09.380Z,9.32
2022-10-26T19:27:08.149Z,10.18
2022-10-26T19:32:07.277Z,9.95
2022-10-26T19:37:06.071Z,9.30
2022-10-26T19:42:04.956Z,10.48
2022-10-26T19:47:05.174Z,10.27
2022-10-26T19:52:04.123Z,9.90
2022-10-26T19:57:02.917Z,12.02
2022-10-26T20:02:01.621Z,11.35
2022-10-26T20:07:00.514Z,11.63
2022-10-26T20:11:59.274Z,10.85
2022-10-26T20:16:57.919Z,10.43
2022-10-26T20:21:56.719Z,11.90
2022-10-26T20:26:55.396Z,12.75
2022-10-26T20:31:56.167Z,11.32
2022-10-26T20:36:55.272Z,11.82
2022-10-26T20:41:54.357Z,11.55
2022-10-26T20:46:53.317Z,11.93
2022-10-26T20:52:21.026Z,10.85
2022-10-26T20:57:25.647Z,10.02
2022-10-26T21:02:24.387Z,12.07
2022-10-26T21:07:23.956Z,10.48
2022-10-26T21:12:22.844Z,11.77
2022-10-26T21:17:21.662Z,11.48
2022-10-26T21:22:20.439Z,11.23
2022-10-26T21:27:19.045Z,11.27
2022-10-26T21:32:17.845Z,11.85
2022-10-26T21:37:16.516Z,11.40
2022-10-26T21:42:15.252Z,11.73
2022-10-26T21:47:13.996Z,11.25
2022-10-26T21:52:12.792Z,12.23
2022-10-26T21:57:11.530Z,11.38
2022-10-26T22:02:10.505Z,10.32
2022-10-26T22:07:09.513Z,10.77
2022-10-26T22:12:08.564Z,10.32
2022-10-26T22:17:07.233Z,11.13
2022-10-26T22:22:05.906Z,10.50
2022-10-26T22:27:04.630Z,9.98
2022-10-26T22:32:03.503Z,10.48
2022-10-26T22:37:02.240Z,9.82
2022-10-26T22:42:00.919Z,9.98
2022-10-26T22:46:59.718Z,11.70
2022-10-26T22:51:58.379Z,10.15
2022-10-26T22:56:57.037Z,10.20
2022-10-26T23:01:56.073Z,9.43
2022-10-26T23:06:54.871Z,9.80
2022-10-26T23:11:53.490Z,9.80
2022-10-26T23:16:52.272Z,9.65
2022-10-26T23:21:50.943Z,9.90
2022-10-26T23:26:49.565Z,9.23
2022-10-26T23:31:48.212Z,8.88
2022-10-26T23:36:48.046Z,9.63
2022-10-26T23:41:46.727Z,10.82
2022-10-26T23:46:45.418Z,10.27
2022-10-26T23:51:44.096Z,10.15
2022-10-26T23:56:42.829Z,9.43
